createdAt,value
2016-10-05T00:00:32.348Z,111
2016-10-05T00:01:32.714Z,111
2016-10-05T00:02:33.389Z,111
2016-10-05T00:03:33.733Z,111
2016-10-05T00:04:34.246Z,111
2016-10-05T00:05:34.757Z,103
2016-10-05T00:06:35.295Z,103
2016-10-05T00:07:35.806Z,103
2016-10-05T00:08:36.305Z,103
2016-10-05T00:09:36.832Z,103
2016-10-05T00:10:37.467Z,103
2016-10-05T00:11:37.833Z,103
2016-10-05T00:12:38.500Z,103
2016-10-05T00:13:38.886Z,103
2016-10-05T00:14:39.520Z,103
2016-10-05T00:15:39.915Z,128
2016-10-05T00:16:40.427Z,128
2016-10-05T00:17:40.938Z,128
2016-10-05T00:18:41.423Z,128
2016-10-05T00:19:41.933Z,128
2016-10-05T00:20:42.478Z,128
2016-10-05T00:21:42.963Z,128
2016-10-05T00:22:43.512Z,128
2016-10-05T00:23:44.149Z,128
2016-10-05T00:24:44.662Z,128
2016-10-05T00:25:45.034Z,127
2016-10-05T00:26:45.574Z,127
2016-10-05T00:27:46.083Z,127
2016-10-05T00:28:46.613Z,127
2016-10-05T00:29:47.086Z,127
2016-10-05T00:30:47.629Z,127
2016-10-05T00:31:48.118Z,127
2016-10-05T00:32:48.612Z,127
2016-10-05T00:33:49.128Z,127
2016-10-05T00:34:49.643Z,127
2016-10-05T00:35:50.178Z,117
2016-10-05T00:36:50.663Z,117
2016-10-05T00:37:51.171Z,117
2016-10-05T00:38:51.707Z,117
2016-10-05T00:39:52.217Z,117
2016-10-05T00:40:52.728Z,117
2016-10-05T00:41:53.209Z,117
2016-10-05T00:42:53.726Z,117
2016-10-05T00:43:54.250Z,117
2016-10-05T00:44:54.747Z,117
2016-10-05T00:45:55.263Z,117
2016-10-05T00:46:55.788Z,117
2016-10-05T00:47:56.286Z,117
2016-10-05T00:48:56.799Z,117
2016-10-05T00:49:57.337Z,117
2016-10-05T00:50:57.848Z,117
2016-10-05T00:51:58.350Z,117
2016-10-05T00:52:58.842Z,117
2016-10-05T00:53:59.348Z,117
2016-10-05T00:55:00.012Z,107
2016-10-05T00:56:00.379Z,107
2016-10-05T00:57:00.889Z,107
2016-10-05T00:58:01.393Z,107
2016-10-05T00:59:01.930Z,107
2016-10-05T01:00:02.571Z,107
2016-10-05T01:01:03.088Z,107
2016-10-05T01:02:03.458Z,107
2016-10-05T01:03:03.971Z,107
2016-10-05T01:04:04.508Z,107
2016-10-05T01:05:05.151Z,144
2016-10-05T01:06:05.542Z,144
2016-10-05T01:07:06.061Z,144
2016-10-05T01:08:06.537Z,144
2016-10-05T01:09:07.199Z,144
2016-10-05T01:10:07.567Z,144
2016-10-05T01:11:08.112Z,144
2016-10-05T01:12:08.589Z,144
2016-10-05T01:13:09.252Z,144
2016-10-05T01:14:09.641Z,144
2016-10-05T01:15:10.154Z,144
2016-10-05T01:16:10.639Z,144
2016-10-05T01:17:11.148Z,144
2016-10-05T01:18:11.662Z,144
2016-10-05T01:19:12.171Z,144
2016-10-05T01:20:12.679Z,144
2016-10-05T01:21:13.219Z,144
2016-10-05T01:22:13.706Z,144
2016-10-05T01:23:14.247Z,144
2016-10-05T01:24:14.749Z,144
2016-10-05T01:25:15.399Z,133
2016-10-05T01:26:15.787Z,133
2016-10-05T01:27:16.274Z,133
2016-10-05T01:28:16.817Z,133
2016-10-05T01:29:17.309Z,133
2016-10-05T01:30:17.818Z,133
2016-10-05T01:31:18.331Z,133
2016-10-05T01:32:18.847Z,133
2016-10-05T01:33:19.384Z,133
2016-10-05T01:34:19.895Z,133
2016-10-05T01:35:20.406Z,128
2016-10-05T01:36:20.924Z,128
2016-10-05T01:37:21.441Z,128
2016-10-05T01:38:21.937Z,128
2016-10-05T01:39:22.593Z,128
2016-10-05T01:40:22.993Z,128
2016-10-05T01:41:23.475Z,128
2016-10-05T01:42:24.017Z,128
2016-10-05T01:43:24.532Z,128
2016-10-05T01:44:25.015Z,128
2016-10-05T01:45:25.557Z,124
2016-10-05T01:46:26.035Z,124
2016-10-05T01:47:26.547Z,124
2016-10-05T01:48:27.083Z,124
2016-10-05T01:49:27.561Z,124
2016-10-05T01:50:28.073Z,124
2016-10-05T01:51:28.615Z,124
2016-10-05T01:52:29.093Z,124
2016-10-05T01:53:29.635Z,124
2016-10-05T01:54:30.145Z,124
2016-10-05T01:55:30.788Z,129
2016-10-05T01:56:31.140Z,129
2016-10-05T01:57:31.793Z,129
2016-10-05T01:58:32.163Z,129
2016-10-05T01:59:32.816Z,129
2016-10-05T02:00:33.224Z,129
2016-10-05T02:01:33.843Z,129
2016-10-05T02:02:34.208Z,129
2016-10-05T02:03:34.750Z,129
2016-10-05T02:04:35.262Z,129
2016-10-05T02:05:35.741Z,148
2016-10-05T02:06:36.282Z,148
2016-10-05T02:07:36.914Z,148
2016-10-05T02:08:37.279Z,148
2016-10-05T02:09:37.935Z,148
2016-10-05T02:10:38.334Z,148
2016-10-05T02:11:38.809Z,148
2016-10-05T02:12:39.357Z,148
2016-10-05T02:13:39.844Z,148
2016-10-05T02:14:40.373Z,148
2016-10-05T02:15:40.888Z,114
2016-10-05T02:16:41.379Z,114
2016-10-05T02:17:41.893Z,114
2016-10-05T02:18:42.436Z,114
2016-10-05T02:19:42.946Z,114
2016-10-05T02:20:43.582Z,114
2016-10-05T02:21:43.948Z,114
2016-10-05T02:22:44.456Z,114
2016-10-05T02:23:44.974Z,114
2016-10-05T02:24:45.480Z,114
2016-10-05T02:25:46.034Z,106
2016-10-05T02:26:46.538Z,106
2016-10-05T02:27:47.021Z,106
2016-10-05T02:28:47.561Z,106
2016-10-05T02:29:48.191Z,106
2016-10-05T02:30:48.578Z,106
2016-10-05T02:31:49.098Z,106
2016-10-05T02:32:49.599Z,106
2016-10-05T02:33:50.086Z,106
2016-10-05T02:34:50.596Z,106
2016-10-05T02:35:51.252Z,82
2016-10-05T02:36:51.617Z,82
2016-10-05T02:37:52.277Z,82
2016-10-05T02:38:52.668Z,82
2016-10-05T02:39:53.159Z,82
2016-10-05T02:40:53.692Z,82
2016-10-05T02:41:54.209Z,82
2016-10-05T02:42:54.707Z,82
2016-10-05T02:43:55.212Z,82
2016-10-05T02:44:55.726Z,139
2016-10-05T02:45:56.233Z,139
2016-10-05T02:46:56.786Z,139
2016-10-05T02:47:57.261Z,139
2016-10-05T02:48:57.806Z,139
2016-10-05T02:49:58.330Z,139
2016-10-05T02:50:58.803Z,139
2016-10-05T02:51:59.462Z,139
2016-10-05T02:52:59.827Z,139
2016-10-05T02:54:00.350Z,139
2016-10-05T02:55:00.885Z,139
2016-10-05T02:56:01.521Z,139
2016-10-05T02:57:01.888Z,139
2016-10-05T02:58:02.583Z,139
2016-10-05T02:59:02.949Z,139
2016-10-05T03:00:03.422Z,139
2016-10-05T03:01:03.932Z,139
2016-10-05T03:02:04.477Z,139
2016-10-05T03:03:04.964Z,139
2016-10-05T03:04:05.470Z,139
2016-10-05T03:05:05.975Z,100
2016-10-05T03:06:06.518Z,100
2016-10-05T03:07:07.022Z,100
2016-10-05T03:08:07.523Z,100
2016-10-05T03:09:08.049Z,100
2016-10-05T03:10:08.557Z,100
2016-10-05T03:11:09.040Z,100
2016-10-05T03:12:09.583Z,100
2016-10-05T03:13:10.067Z,100
2016-10-05T03:14:10.575Z,100
2016-10-05T03:15:11.089Z,55
2016-10-05T03:16:11.628Z,55
2016-10-05T03:17:12.136Z,55
2016-10-05T03:18:12.625Z,55
2016-10-05T03:19:13.126Z,55
2016-10-05T03:20:13.670Z,55
2016-10-05T03:21:14.149Z,55
2016-10-05T03:22:14.806Z,55
2016-10-05T03:23:15.197Z,55
2016-10-05T03:24:15.680Z,55
2016-10-05T03:25:16.189Z,47
2016-10-05T03:26:16.852Z,47
2016-10-05T03:27:17.239Z,47
2016-10-05T03:28:17.869Z,47
2016-10-05T03:29:18.258Z,47
2016-10-05T03:30:18.745Z,47
2016-10-05T03:31:19.259Z,47
2016-10-05T03:32:19.777Z,47
2016-10-05T03:33:20.336Z,47
2016-10-05T03:34:20.842Z,47
2016-10-05T03:35:21.362Z,106
2016-10-05T03:36:21.996Z,106
2016-10-05T03:37:22.358Z,106
2016-10-05T03:38:22.866Z,106
2016-10-05T03:39:23.406Z,106
2016-10-05T03:40:24.042Z,106
2016-10-05T03:41:24.433Z,106
2016-10-05T03:42:25.063Z,106
2016-10-05T03:43:25.451Z,106
2016-10-05T03:44:25.937Z,106
2016-10-05T03:45:26.444Z,157
2016-10-05T03:46:26.960Z,157
2016-10-05T03:47:27.462Z,157
2016-10-05T03:48:28.123Z,157
2016-10-05T03:49:28.489Z,157
2016-10-05T03:50:29.003Z,157
2016-10-05T03:51:29.538Z,157
2016-10-05T03:52:30.171Z,157
2016-10-05T03:53:30.566Z,157
2016-10-05T03:54:31.196Z,157
2016-10-05T03:55:31.591Z,133
2016-10-05T03:56:32.099Z,133
2016-10-05T03:57:32.615Z,133
2016-10-05T03:58:33.103Z,133
2016-10-05T03:59:33.627Z,133
2016-10-05T04:00:34.151Z,133
2016-10-05T04:01:34.634Z,133
2016-10-05T04:02:35.297Z,133
2016-10-05T04:03:35.662Z,133
2016-10-05T04:04:36.195Z,133
2016-10-05T04:05:36.710Z,146
2016-10-05T04:06:37.193Z,146
2016-10-05T04:07:37.702Z,146
2016-10-05T04:08:38.245Z,146
2016-10-05T04:09:38.737Z,146
2016-10-05T04:10:39.262Z,146
2016-10-05T04:11:39.769Z,146
2016-10-05T04:12:40.425Z,146
2016-10-05T04:13:40.792Z,146
2016-10-05T04:14:41.326Z,146
2016-10-05T04:15:41.838Z,161
2016-10-05T04:16:42.467Z,161
2016-10-05T04:17:42.828Z,161
2016-10-05T04:18:43.369Z,161
2016-10-05T04:19:43.871Z,161
2016-10-05T04:20:44.363Z,161
2016-10-05T04:21:44.870Z,161
2016-10-05T04:22:45.527Z,161
2016-10-05T04:23:45.888Z,161
2016-10-05T04:24:46.438Z,161
2016-10-05T04:25:46.910Z,114
2016-10-05T04:26:47.422Z,114
2016-10-05T04:27:47.934Z,114
2016-10-05T04:28:48.446Z,114
2016-10-05T04:29:48.977Z,114
2016-10-05T04:30:49.471Z,114
2016-10-05T04:31:50.003Z,114
2016-10-05T04:32:50.489Z,114
2016-10-05T04:33:51.033Z,114
2016-10-05T04:34:51.658Z,114
2016-10-05T04:35:52.172Z,114
2016-10-05T04:36:52.683Z,114
2016-10-05T04:37:53.047Z,114
2016-10-05T04:38:53.588Z,114
2016-10-05T04:39:54.095Z,114
2016-10-05T04:40:54.577Z,114
2016-10-05T04:41:55.236Z,114
2016-10-05T04:42:55.595Z,114
2016-10-05T04:43:56.117Z,114
2016-10-05T04:44:56.649Z,112
2016-10-05T04:45:57.132Z,112
2016-10-05T04:46:57.652Z,112
2016-10-05T04:47:58.196Z,112
2016-10-05T04:48:58.688Z,112
2016-10-05T04:49:59.203Z,112
2016-10-05T04:50:59.719Z,112
2016-10-05T04:52:00.258Z,112
2016-10-05T04:53:00.749Z,112
2016-10-05T04:54:01.262Z,112
2016-10-05T04:55:01.780Z,161
2016-10-05T04:56:02.286Z,161
2016-10-05T04:57:02.795Z,161
2016-10-05T04:58:03.303Z,161
2016-10-05T04:59:03.816Z,161
2016-10-05T05:00:04.328Z,161
2016-10-05T05:01:04.838Z,161
2016-10-05T05:02:05.353Z,161
2016-10-05T05:03:06.011Z,161
2016-10-05T05:04:06.399Z,161
2016-10-05T05:05:06.888Z,179
2016-10-05T05:06:07.431Z,179
2016-10-05T05:07:07.914Z,179
2016-10-05T05:08:08.457Z,179
2016-10-05T05:09:08.938Z,179
2016-10-05T05:10:09.442Z,179
2016-10-05T05:11:09.951Z,179
2016-10-05T05:12:10.466Z,179
2016-10-05T05:13:10.980Z,179
2016-10-05T05:14:11.518Z,179
2016-10-05T05:15:12.001Z,166
2016-10-05T05:16:12.534Z,166
2016-10-05T05:17:13.019Z,166
2016-10-05T05:18:13.557Z,166
2016-10-05T05:19:14.078Z,166
2016-10-05T05:20:14.555Z,166
2016-10-05T05:21:15.215Z,166
2016-10-05T05:22:15.584Z,166
2016-10-05T05:23:16.096Z,166
2016-10-05T05:24:16.608Z,166
2016-10-05T05:25:17.120Z,157
2016-10-05T05:26:17.670Z,157
2016-10-05T05:27:18.171Z,157
2016-10-05T05:28:18.668Z,157
2016-10-05T05:29:19.183Z,157
2016-10-05T05:30:19.726Z,157
2016-10-05T05:31:20.346Z,157
2016-10-05T05:32:20.727Z,157
2016-10-05T05:33:21.242Z,157
2016-10-05T05:34:21.728Z,157
2016-10-05T05:35:22.240Z,133
2016-10-05T05:36:22.750Z,133
2016-10-05T05:37:23.264Z,133
2016-10-05T05:38:23.774Z,133
2016-10-05T05:39:24.318Z,133
2016-10-05T05:40:24.838Z,133
2016-10-05T05:41:25.451Z,133
2016-10-05T05:42:25.804Z,133
2016-10-05T05:43:26.334Z,133
2016-10-05T05:44:26.955Z,133
2016-10-05T05:45:27.306Z,174
2016-10-05T05:46:27.950Z,174
2016-10-05T05:47:28.337Z,174
2016-10-05T05:48:28.952Z,174
2016-10-05T05:49:29.305Z,174
2016-10-05T05:50:29.804Z,174
2016-10-05T05:51:30.451Z,174
2016-10-05T05:52:30.949Z,174
2016-10-05T05:53:31.448Z,174
2016-10-05T05:54:31.799Z,174
2016-10-05T05:55:32.318Z,100
2016-10-05T05:56:32.795Z,100
2016-10-05T05:57:33.444Z,100
2016-10-05T05:58:33.835Z,100
2016-10-05T05:59:34.439Z,100
2016-10-05T06:00:34.795Z,100
2016-10-05T06:01:35.463Z,100
2016-10-05T06:02:35.814Z,100
2016-10-05T06:03:36.302Z,100
2016-10-05T06:04:36.969Z,100
2016-10-05T06:05:37.343Z,166
2016-10-05T06:06:37.958Z,166
2016-10-05T06:07:38.464Z,166
2016-10-05T06:08:39.115Z,166
2016-10-05T06:09:39.476Z,166
2016-10-05T06:10:39.963Z,166
2016-10-05T06:11:40.464Z,166
2016-10-05T06:12:40.840Z,166
2016-10-05T06:13:41.317Z,166
2016-10-05T06:14:41.820Z,166
2016-10-05T06:15:42.319Z,146
2016-10-05T06:16:42.858Z,146
2016-10-05T06:17:43.470Z,146
2016-10-05T06:18:43.820Z,146
2016-10-05T06:19:44.320Z,146
2016-10-05T06:20:44.867Z,146
2016-10-05T06:21:45.469Z,146
2016-10-05T06:22:45.980Z,146
2016-10-05T06:23:46.322Z,146
2016-10-05T06:24:46.838Z,146
2016-10-05T06:25:47.350Z,164
2016-10-05T06:26:47.856Z,164
2016-10-05T06:27:48.475Z,164
2016-10-05T06:28:48.849Z,164
2016-10-05T06:29:49.349Z,164
2016-10-05T06:30:49.864Z,164
2016-10-05T06:31:50.477Z,164
2016-10-05T06:32:50.848Z,164
2016-10-05T06:33:51.366Z,164
2016-10-05T06:34:51.828Z,164
2016-10-05T06:35:52.354Z,104
2016-10-05T06:36:52.887Z,104
2016-10-05T06:37:53.482Z,104
2016-10-05T06:38:53.987Z,104
2016-10-05T06:39:54.337Z,104
2016-10-05T06:40:54.857Z,104
2016-10-05T06:41:55.509Z,104
2016-10-05T06:42:55.996Z,104
2016-10-05T06:43:56.348Z,104
2016-10-05T06:44:56.852Z,163
2016-10-05T06:45:57.366Z,163
2016-10-05T06:46:57.882Z,163
2016-10-05T06:47:58.383Z,163
2016-10-05T06:48:58.857Z,163
2016-10-05T06:49:59.389Z,163
2016-10-05T06:51:00.007Z,163
2016-10-05T06:52:00.500Z,163
2016-10-05T06:53:00.867Z,163
2016-10-05T06:54:01.381Z,163
2016-10-05T06:55:01.877Z,148
2016-10-05T06:56:02.365Z,148
2016-10-05T06:57:03.005Z,148
2016-10-05T06:58:03.524Z,148
2016-10-05T06:59:03.887Z,148
2016-10-05T07:00:04.382Z,148
2016-10-05T07:01:04.873Z,148
2016-10-05T07:02:05.382Z,148
2016-10-05T07:03:06.015Z,148
2016-10-05T07:04:06.512Z,148
2016-10-05T07:05:07.013Z,176
2016-10-05T07:06:07.513Z,176
2016-10-05T07:07:07.892Z,176
2016-10-05T07:08:08.512Z,176
2016-10-05T07:09:08.863Z,176
2016-10-05T07:10:09.362Z,176
2016-10-05T07:11:10.024Z,176
2016-10-05T07:12:10.362Z,176
2016-10-05T07:13:10.866Z,176
2016-10-05T07:14:11.391Z,176
2016-10-05T07:15:12.013Z,199
2016-10-05T07:16:12.382Z,199
2016-10-05T07:17:12.866Z,199
2016-10-05T07:18:13.364Z,199
2016-10-05T07:19:13.915Z,199
2016-10-05T07:20:14.523Z,199
2016-10-05T07:21:14.898Z,199
2016-10-05T07:22:15.375Z,199
2016-10-05T07:23:15.879Z,199
2016-10-05T07:24:16.531Z,199
2016-10-05T07:25:17.032Z,152
2016-10-05T07:26:17.386Z,152
2016-10-05T07:27:17.889Z,152
2016-10-05T07:28:18.389Z,152
2016-10-05T07:29:18.887Z,152
2016-10-05T07:30:19.390Z,152
2016-10-05T07:31:19.892Z,152
2016-10-05T07:32:20.397Z,152
2016-10-05T07:33:21.041Z,152
2016-10-05T07:34:21.435Z,152
2016-10-05T07:35:21.890Z,153
2016-10-05T07:36:22.563Z,153
2016-10-05T07:37:23.044Z,153
2016-10-05T07:38:23.444Z,153
2016-10-05T07:39:23.922Z,153
2016-10-05T07:40:24.395Z,153
2016-10-05T07:41:24.892Z,153
2016-10-05T07:42:25.400Z,153
2016-10-05T07:43:25.908Z,153
2016-10-05T07:44:26.405Z,153
2016-10-05T07:45:27.051Z,143
2016-10-05T07:46:27.401Z,143
2016-10-05T07:47:27.899Z,143
2016-10-05T07:48:28.539Z,143
2016-10-05T07:49:29.045Z,143
2016-10-05T07:50:29.414Z,143
2016-10-05T07:51:29.894Z,143
2016-10-05T07:52:30.559Z,143
2016-10-05T07:53:30.912Z,143
2016-10-05T07:54:31.542Z,143
2016-10-05T07:55:32.035Z,117
2016-10-05T07:56:32.536Z,117
2016-10-05T07:57:32.893Z,117
2016-10-05T07:58:33.546Z,117
2016-10-05T07:59:33.923Z,117
2016-10-05T08:00:34.545Z,117
2016-10-05T08:01:34.906Z,117
2016-10-05T08:02:35.545Z,117
2016-10-05T08:03:35.915Z,117
2016-10-05T08:04:36.419Z,117
2016-10-05T08:05:37.061Z,169
2016-10-05T08:06:37.544Z,169
2016-10-05T08:07:37.902Z,169
2016-10-05T08:08:38.398Z,169
2016-10-05T08:09:38.897Z,169
2016-10-05T08:10:39.410Z,169
2016-10-05T08:11:39.895Z,169
2016-10-05T08:12:40.420Z,169
2016-10-05T08:13:41.046Z,169
2016-10-05T08:14:41.543Z,169
2016-10-05T08:15:41.897Z,159
2016-10-05T08:16:42.422Z,159
2016-10-05T08:17:42.927Z,159
2016-10-05T08:18:43.425Z,159
2016-10-05T08:19:43.914Z,159
2016-10-05T08:20:44.401Z,159
2016-10-05T08:21:44.912Z,159
2016-10-05T08:22:45.416Z,159
2016-10-05T08:23:46.062Z,159
2016-10-05T08:24:46.552Z,159
2016-10-05T08:25:47.048Z,181
2016-10-05T08:26:47.421Z,181
2016-10-05T08:27:47.899Z,181
2016-10-05T08:28:48.454Z,181
2016-10-05T08:29:48.900Z,181
2016-10-05T08:30:49.448Z,181
2016-10-05T08:31:49.908Z,181
2016-10-05T08:32:50.430Z,181
2016-10-05T08:33:50.908Z,181
2016-10-05T08:34:51.442Z,181
2016-10-05T08:35:51.918Z,132
2016-10-05T08:36:52.569Z,132
2016-10-05T08:37:53.073Z,132
2016-10-05T08:38:53.430Z,132
2016-10-05T08:39:54.070Z,132
2016-10-05T08:40:54.424Z,132
2016-10-05T08:41:54.948Z,132
2016-10-05T08:42:55.427Z,132
2016-10-05T08:43:55.971Z,132
2016-10-05T08:44:56.587Z,140
2016-10-05T08:45:56.935Z,140
2016-10-05T08:46:57.443Z,140
2016-10-05T08:47:57.977Z,140
2016-10-05T08:48:58.435Z,140
2016-10-05T08:49:58.956Z,140
2016-10-05T08:50:59.469Z,140
2016-10-05T08:52:00.085Z,140
2016-10-05T08:53:00.446Z,140
2016-10-05T08:54:00.932Z,140
2016-10-05T08:55:01.577Z,135
2016-10-05T08:56:01.956Z,135
2016-10-05T08:57:02.576Z,135
2016-10-05T08:58:02.939Z,135
2016-10-05T08:59:03.426Z,135
2016-10-05T09:00:03.933Z,135
2016-10-05T09:01:04.427Z,135
2016-10-05T09:02:05.075Z,135
2016-10-05T09:03:05.429Z,135
2016-10-05T09:04:06.094Z,135
2016-10-05T09:05:06.423Z,148
2016-10-05T09:06:09.941Z,148
2016-10-05T09:07:07.427Z,148
2016-10-05T09:08:07.935Z,148
2016-10-05T09:09:08.438Z,148
2016-10-05T09:10:08.947Z,148
2016-10-05T09:11:09.575Z,148
2016-10-05T09:12:09.951Z,148
2016-10-05T09:13:10.437Z,148
2016-10-05T09:14:11.085Z,148
2016-10-05T09:15:11.443Z,145
2016-10-05T09:16:12.089Z,145
2016-10-05T09:17:12.470Z,145
2016-10-05T09:18:12.957Z,145
2016-10-05T09:19:13.440Z,145
2016-10-05T09:20:13.956Z,145
2016-10-05T09:21:14.463Z,145
2016-10-05T09:22:14.972Z,145
2016-10-05T09:23:15.446Z,145
2016-10-05T09:24:15.938Z,145
2016-10-05T09:25:16.455Z,139
2016-10-05T09:26:16.945Z,139
2016-10-05T09:27:17.434Z,139
2016-10-05T09:28:17.939Z,139
2016-10-05T09:29:18.436Z,139
2016-10-05T09:30:19.082Z,139
2016-10-05T09:31:19.435Z,139
2016-10-05T09:32:19.935Z,139
2016-10-05T09:33:20.479Z,139
2016-10-05T09:34:21.085Z,139
2016-10-05T09:35:21.582Z,163
2016-10-05T09:36:21.979Z,163
2016-10-05T09:37:22.601Z,163
2016-10-05T09:38:23.086Z,163
2016-10-05T09:39:23.595Z,163
2016-10-05T09:40:24.081Z,163
2016-10-05T09:41:24.583Z,163
2016-10-05T09:42:24.972Z,163
2016-10-05T09:43:25.435Z,163
2016-10-05T09:44:25.950Z,163
2016-10-05T09:45:26.438Z,125
2016-10-05T09:46:26.948Z,125
2016-10-05T09:47:27.447Z,125
2016-10-05T09:48:27.987Z,125
2016-10-05T09:49:28.462Z,125
2016-10-05T09:50:28.956Z,125
2016-10-05T09:51:29.459Z,125
2016-10-05T09:52:29.946Z,125
2016-10-05T09:53:30.474Z,125
2016-10-05T09:54:30.988Z,125
2016-10-05T09:55:31.605Z,164
2016-10-05T09:56:32.107Z,164
2016-10-05T09:57:32.463Z,164
2016-10-05T09:58:33.115Z,164
2016-10-05T09:59:33.472Z,164
2016-10-05T10:00:33.986Z,164
2016-10-05T10:01:34.474Z,164
2016-10-05T10:02:35.255Z,164
2016-10-05T10:03:35.464Z,164
2016-10-05T10:04:35.974Z,164
2016-10-05T10:05:36.456Z,132
2016-10-05T10:06:37.100Z,132
2016-10-05T10:07:37.501Z,132
2016-10-05T10:08:37.974Z,132
2016-10-05T10:09:38.483Z,132
2016-10-05T10:10:39.111Z,132
2016-10-05T10:11:39.598Z,132
2016-10-05T10:12:39.988Z,132
2016-10-05T10:13:40.604Z,132
2016-10-05T10:14:40.950Z,132
2016-10-05T10:15:41.455Z,146
2016-10-05T10:16:41.954Z,146
2016-10-05T10:17:42.597Z,146
2016-10-05T10:18:42.949Z,146
2016-10-05T10:19:43.490Z,146
2016-10-05T10:20:43.975Z,146
2016-10-05T10:21:44.603Z,146
2016-10-05T10:22:44.959Z,146
2016-10-05T10:23:45.454Z,146
2016-10-05T10:24:45.950Z,146
2016-10-05T10:25:46.499Z,149
2016-10-05T10:26:47.104Z,149
2016-10-05T10:27:47.601Z,149
2016-10-05T10:28:47.960Z,149
2016-10-05T10:29:48.472Z,149
2016-10-05T10:30:48.977Z,149
2016-10-05T10:31:49.468Z,149
2016-10-05T10:32:49.967Z,149
2016-10-05T10:33:50.608Z,149
2016-10-05T10:34:50.980Z,149
2016-10-05T10:35:51.495Z,163
2016-10-05T10:36:52.002Z,163
2016-10-05T10:37:52.611Z,163
2016-10-05T10:38:52.980Z,163
2016-10-05T10:39:53.474Z,163
2016-10-05T10:40:53.968Z,163
2016-10-05T10:41:54.613Z,163
2016-10-05T10:42:55.117Z,163
2016-10-05T10:43:55.467Z,163
2016-10-05T10:44:56.119Z,135
2016-10-05T10:45:56.491Z,135
2016-10-05T10:46:56.986Z,135
2016-10-05T10:47:57.618Z,135
2016-10-05T10:48:57.971Z,135
2016-10-05T10:49:58.477Z,135
2016-10-05T10:50:59.123Z,135
2016-10-05T10:51:59.515Z,135
2016-10-05T10:52:59.974Z,135
2016-10-05T10:54:00.489Z,135
2016-10-05T10:55:01.115Z,168
2016-10-05T10:56:01.614Z,168
2016-10-05T10:57:01.981Z,168
2016-10-05T10:58:02.464Z,168
2016-10-05T10:59:02.967Z,168
2016-10-05T11:00:03.614Z,168
2016-10-05T11:01:03.969Z,168
2016-10-05T11:02:04.499Z,168
2016-10-05T11:03:05.129Z,168
2016-10-05T11:04:05.473Z,168
2016-10-05T11:05:05.978Z,142
2016-10-05T11:06:06.488Z,142
2016-10-05T11:07:06.986Z,142
2016-10-05T11:08:07.510Z,142
2016-10-05T11:09:08.023Z,142
2016-10-05T11:10:08.514Z,142
2016-10-05T11:11:08.995Z,142
2016-10-05T11:12:09.636Z,142
2016-10-05T11:13:10.025Z,142
2016-10-05T11:14:10.643Z,142
2016-10-05T11:15:10.987Z,162
2016-10-05T11:16:11.511Z,162
2016-10-05T11:17:12.143Z,162
2016-10-05T11:18:12.650Z,162
2016-10-05T11:19:13.008Z,162
2016-10-05T11:20:13.494Z,162
2016-10-05T11:21:14.037Z,162
2016-10-05T11:22:14.492Z,162
2016-10-05T11:23:14.992Z,162
2016-10-05T11:24:15.495Z,162
2016-10-05T11:25:16.156Z,136
2016-10-05T11:26:16.624Z,136
2016-10-05T11:27:17.008Z,136
2016-10-05T11:28:17.477Z,136
2016-10-05T11:29:18.127Z,136
2016-10-05T11:30:18.624Z,136
2016-10-05T11:31:19.122Z,136
2016-10-05T11:32:19.511Z,136
2016-10-05T11:33:20.130Z,136
2016-10-05T11:34:20.634Z,136
2016-10-05T11:35:20.999Z,187
2016-10-05T11:36:21.513Z,187
2016-10-05T11:37:21.969Z,187
2016-10-05T11:38:22.622Z,187
2016-10-05T11:39:22.998Z,187
2016-10-05T11:40:23.495Z,187
2016-10-05T11:41:23.970Z,187
2016-10-05T11:42:24.480Z,187
2016-10-05T11:43:24.983Z,187
2016-10-05T11:44:25.502Z,187
2016-10-05T11:45:25.989Z,173
2016-10-05T11:46:26.490Z,173
2016-10-05T11:47:26.997Z,173
2016-10-05T11:48:27.645Z,173
2016-10-05T11:49:28.008Z,173
2016-10-05T11:50:28.536Z,173
2016-10-05T11:51:29.004Z,173
2016-10-05T11:52:29.504Z,173
2016-10-05T11:53:29.994Z,173
2016-10-05T11:54:30.535Z,173
2016-10-05T11:55:30.994Z,225
2016-10-05T11:56:31.521Z,225
2016-10-05T11:57:31.998Z,225
2016-10-05T11:58:32.494Z,225
2016-10-05T11:59:33.144Z,225
2016-10-05T12:00:33.658Z,225
2016-10-05T12:01:34.005Z,225
2016-10-05T12:02:34.546Z,225
2016-10-05T12:03:35.024Z,225
2016-10-05T12:04:35.533Z,225
2016-10-05T12:05:35.997Z,150
2016-10-05T12:06:36.642Z,150
2016-10-05T12:07:37.009Z,150
2016-10-05T12:08:37.650Z,150
2016-10-05T12:09:38.061Z,150
2016-10-05T12:10:38.540Z,150
2016-10-05T12:11:39.146Z,150
2016-10-05T12:12:39.646Z,150
2016-10-05T12:13:39.997Z,150
2016-10-05T12:14:40.644Z,150
2016-10-05T12:15:41.021Z,104
2016-10-05T12:16:41.644Z,104
2016-10-05T12:17:41.993Z,104
2016-10-05T12:18:42.514Z,104
2016-10-05T12:19:43.009Z,104
2016-10-05T12:20:43.541Z,104
2016-10-05T12:21:44.002Z,104
2016-10-05T12:22:44.650Z,104
2016-10-05T12:23:45.153Z,104
2016-10-05T12:24:45.510Z,104
2016-10-05T12:25:46.013Z,262
2016-10-05T12:26:46.509Z,262
2016-10-05T12:27:47.162Z,262
2016-10-05T12:28:47.520Z,262
2016-10-05T12:29:48.038Z,262
2016-10-05T12:30:48.662Z,262
2016-10-05T12:31:49.159Z,262
2016-10-05T12:32:49.678Z,262
2016-10-05T12:33:50.039Z,262
2016-10-05T12:34:50.537Z,262
2016-10-05T12:35:51.171Z,171
2016-10-05T12:36:51.513Z,171
2016-10-05T12:37:52.164Z,171
2016-10-05T12:38:52.543Z,171
2016-10-05T12:39:53.015Z,171
2016-10-05T12:40:53.513Z,171
2016-10-05T12:41:54.163Z,171
2016-10-05T12:42:54.679Z,171
2016-10-05T12:43:55.159Z,171
2016-10-05T12:44:55.669Z,133
2016-10-05T12:45:56.010Z,133
2016-10-05T12:46:56.659Z,133
2016-10-05T12:47:57.159Z,133
2016-10-05T12:48:57.517Z,133
2016-10-05T12:49:58.162Z,133
2016-10-05T12:50:58.514Z,133
2016-10-05T12:51:59.017Z,133
2016-10-05T12:52:59.549Z,133
2016-10-05T12:54:00.169Z,133
2016-10-05T12:55:00.657Z,170
2016-10-05T12:56:01.012Z,170
2016-10-05T12:57:01.657Z,170
2016-10-05T12:58:02.014Z,170
2016-10-05T12:59:02.657Z,170
2016-10-05T13:00:03.012Z,170
2016-10-05T13:01:03.510Z,170
2016-10-05T13:02:04.042Z,170
2016-10-05T13:03:04.667Z,170
2016-10-05T13:04:05.020Z,170
2016-10-05T13:05:05.528Z,119
2016-10-05T13:06:06.066Z,119
2016-10-05T13:07:06.517Z,119
2016-10-05T13:08:07.026Z,119
2016-10-05T13:09:07.666Z,119
2016-10-05T13:10:08.031Z,119
2016-10-05T13:11:08.686Z,119
2016-10-05T13:12:09.050Z,119
2016-10-05T13:13:09.670Z,119
2016-10-05T13:14:10.168Z,119
2016-10-05T13:15:10.518Z,126
2016-10-05T13:16:11.023Z,126
2016-10-05T13:17:11.520Z,126
2016-10-05T13:18:12.020Z,126
2016-10-05T13:19:12.665Z,126
2016-10-05T13:20:13.175Z,126
2016-10-05T13:21:13.542Z,126
2016-10-05T13:22:14.028Z,126
2016-10-05T13:23:14.531Z,126
2016-10-05T13:24:15.037Z,126
2016-10-05T13:25:15.667Z,120
2016-10-05T13:26:16.167Z,120
2016-10-05T13:27:16.662Z,120
2016-10-05T13:28:17.017Z,120
2016-10-05T13:29:17.672Z,120
2016-10-05T13:30:18.311Z,120
2016-10-05T13:31:18.529Z,120
2016-10-05T13:32:19.410Z,120
2016-10-05T13:33:19.541Z,120
2016-10-05T13:34:20.024Z,120
2016-10-05T13:35:20.670Z,150
2016-10-05T13:36:21.178Z,150
2016-10-05T13:37:21.538Z,150
2016-10-05T13:38:22.025Z,150
2016-10-05T13:39:22.672Z,150
2016-10-05T13:40:23.045Z,150
2016-10-05T13:41:23.564Z,150
2016-10-05T13:42:24.066Z,150
2016-10-05T13:43:24.532Z,150
2016-10-05T13:44:25.044Z,150
2016-10-05T13:45:25.563Z,209
2016-10-05T13:46:26.080Z,209
2016-10-05T13:47:26.560Z,209
2016-10-05T13:48:27.058Z,209
2016-10-05T13:49:27.560Z,209
2016-10-05T13:50:28.031Z,209
2016-10-05T13:51:28.676Z,209
2016-10-05T13:52:29.070Z,209
2016-10-05T13:53:29.578Z,209
2016-10-05T13:54:30.085Z,209